Time;durP1;ratioP1;P1;durP2;ratioP2;P2;SDS_P1;SDS_P2;PMS_P1;PMS_P2;Temp;Humidity;BMP_temperature;BMP_pressure;BME280_temperature;BME280_humidity;BME280_pressure;Samples;Min_cycle;Max_cycle;Signal;HPM_P1;HPM_P2
2021/03/15 00:02:03;;;;;;;1.27;0.90;;;2.70;99.90;;;;;;4977834;28;20203;-70
2021/03/15 00:04:28;;;;;;;1.70;1.37;;;2.70;99.90;;;;;;4978313;28;20275;-65
2021/03/15 00:06:54;;;;;;;0.90;0.90;;;2.80;99.90;;;;;;4979187;28;20212;-70
2021/03/15 00:09:20;;;;;;;1.43;1.33;;;2.70;99.90;;;;;;4978776;28;20184;-67
2021/03/15 00:11:45;;;;;;;1.77;1.47;;;2.70;99.90;;;;;;4976977;28;20287;-69
2021/03/15 00:14:11;;;;;;;0.73;0.70;;;2.70;99.90;;;;;;4973071;28;20632;-70
2021/03/15 00:16:37;;;;;;;1.10;0.87;;;2.60;99.90;;;;;;4970316;28;20264;-67
2021/03/15 00:19:02;;;;;;;1.23;0.70;;;2.60;99.90;;;;;;4969620;28;20644;-66
2021/03/15 00:21:28;;;;;;;1.47;1.20;;;2.50;99.90;;;;;;4969810;28;20243;-68
2021/03/15 00:23:54;;;;;;;1.60;1.00;;;2.70;99.90;;;;;;4970362;28;20696;-68
2021/03/15 00:26:19;;;;;;;1.27;1.17;;;2.70;99.90;;;;;;4975471;28;20276;-68
2021/03/15 00:28:45;;;;;;;1.30;1.17;;;2.80;99.90;;;;;;4969863;28;20637;-71
2021/03/15 00:31:11;;;;;;;1.73;1.43;;;2.80;99.90;;;;;;4967105;28;20212;-67
2021/03/15 00:33:36;;;;;;;1.73;1.63;;;2.70;99.90;;;;;;4975784;28;21144;-68
2021/03/15 00:36:02;;;;;;;1.80;1.70;;;2.80;99.90;;;;;;4972496;28;20192;-66
2021/03/15 00:38:28;;;;;;;2.93;1.50;;;2.80;99.90;;;;;;4974384;28;20188;-70
2021/03/15 00:40:53;;;;;;;1.97;1.33;;;3.00;99.90;;;;;;4973659;28;20196;-68
2021/03/15 00:43:19;;;;;;;1.37;1.00;;;3.00;99.90;;;;;;4974630;28;20211;-67
2021/03/15 00:45:44;;;;;;;2.43;1.30;;;3.10;99.90;;;;;;4974922;28;20275;-70
2021/03/15 00:48:10;;;;;;;1.53;1.13;;;3.10;99.90;;;;;;4974747;28;20192;-66
2021/03/15 00:50:42;;;;;;;3.27;1.93;;;3.10;99.90;;;;;;4974167;28;20290;-70
2021/03/15 00:53:11;;;;;;;5.60;1.53;;;3.00;99.90;;;;;;4978409;28;20184;-67
2021/03/15 00:55:37;;;;;;;2.00;1.70;;;3.00;99.90;;;;;;4973241;28;20188;-69
2021/03/15 00:58:03;;;;;;;2.23;1.23;;;2.90;99.90;;;;;;4974770;28;20190;-67
2021/03/15 01:00:35;;;;;;;1.50;1.23;;;2.80;99.90;;;;;;4972860;28;20191;-70
2021/03/15 01:03:01;;;;;;;1.93;1.53;;;2.90;99.90;;;;;;4977517;28;20181;-69
2021/03/15 01:05:35;;;;;;;1.47;1.33;;;2.80;99.90;;;;;;4980577;28;20884;-70
2021/03/15 01:08:01;;;;;;;3.30;1.43;;;2.80;99.90;;;;;;4979994;28;20200;-72
2021/03/15 01:10:28;;;;;;;1.97;1.67;;;3.00;99.90;;;;;;4974827;28;20211;-68
2021/03/15 01:12:54;;;;;;;2.63;1.67;;;3.00;99.90;;;;;;4975633;28;20669;-71
2021/03/15 01:15:21;;;;;;;5.40;1.57;;;2.90;99.90;;;;;;4971418;28;20211;-68
2021/03/15 01:17:47;;;;;;;2.10;1.90;;;2.90;99.90;;;;;;4980901;28;20555;-68
2021/03/15 01:20:14;;;;;;;2.10;1.40;;;3.00;99.90;;;;;;4971105;28;20197;-72
2021/03/15 01:22:40;;;;;;;1.80;1.30;;;3.10;99.90;;;;;;4977666;28;20200;-70
2021/03/15 01:25:06;;;;;;;3.17;1.10;;;3.20;99.90;;;;;;4973125;28;20212;-69
2021/03/15 01:27:32;;;;;;;1.90;1.03;;;3.30;99.90;;;;;;4979817;28;20220;-68
2021/03/15 01:29:58;;;;;;;2.37;1.77;;;3.30;99.90;;;;;;4975112;28;20766;-70
2021/03/15 01:32:23;;;;;;;1.33;1.23;;;3.30;99.90;;;;;;4979675;28;20274;-68
2021/03/15 01:34:49;;;;;;;2.17;0.77;;;3.30;99.90;;;;;;4975909;28;20277;-70
2021/03/15 01:37:15;;;;;;;1.27;1.17;;;3.40;99.90;;;;;;4982080;28;20214;-68
2021/03/15 01:39:41;;;;;;;6.13;2.13;;;3.40;99.90;;;;;;4975938;28;20188;-69
2021/03/15 01:42:07;;;;;;;2.10;1.23;;;3.50;99.90;;;;;;4976700;28;20188;-71
2021/03/15 01:44:33;;;;;;;3.83;1.30;;;3.50;99.90;;;;;;4975590;28;20205;-67
2021/03/15 01:46:59;;;;;;;0.83;0.80;;;3.60;99.90;;;;;;4977200;28;20197;-70
2021/03/15 01:49:25;;;;;;;1.47;1.00;;;3.60;99.90;;;;;;4979228;28;20264;-68
2021/03/15 01:51:51;;;;;;;1.37;1.10;;;3.60;99.90;;;;;;4980582;28;20671;-69
2021/03/15 01:54:18;;;;;;;1.00;0.83;;;3.70;99.90;;;;;;4976001;28;20212;-68
2021/03/15 01:56:45;;;;;;;3.97;3.37;;;3.70;99.90;;;;;;4975605;28;20188;-70
2021/03/15 01:59:14;;;;;;;1.27;1.17;;;3.60;99.90;;;;;;4977507;28;20196;-71
2021/03/15 02:01:40;;;;;;;2.13;1.40;;;3.70;99.90;;;;;;4977798;28;20304;-70
2021/03/15 02:04:06;;;;;;;3.77;1.43;;;3.70;99.90;;;;;;4975479;28;20704;-69
2021/03/15 02:06:33;;;;;;;1.83;1.23;;;3.70;99.90;;;;;;4973850;28;20220;-70
2021/03/15 02:08:58;;;;;;;1.97;1.37;;;3.80;99.90;;;;;;4976357;28;20223;-69
2021/03/15 02:11:57;;;;;;;1.93;1.30;;;3.70;99.90;;;;;;4976329;28;20296;-69
2021/03/15 02:14:55;;;;;;;1.47;1.03;;;3.70;99.90;;;;;;4972652;28;20800;-68
2021/03/15 02:18:02;;;;;;;2.53;1.30;;;3.60;99.90;;;;;;4976765;28;20558;-70
2021/03/15 02:20:43;;;;;;;3.03;1.23;;;3.60;99.90;;;;;;4973895;28;20220;-70
2021/03/15 02:23:20;;;;;;;3.47;1.30;;;3.60;99.90;;;;;;4979505;28;20267;-70
2021/03/15 02:26:17;;;;;;;1.83;1.37;;;3.60;99.90;;;;;;4977491;28;20219;-69
2021/03/15 02:29:34;;;;;;;2.77;1.50;;;3.60;99.90;;;;;;4977709;28;20567;-69
2021/03/15 02:32:12;;;;;;;1.60;1.30;;;3.60;99.90;;;;;;4975570;28;20209;-68
2021/03/15 02:34:46;;;;;;;2.07;1.13;;;3.60;99.90;;;;;;4970067;28;20212;-69
2021/03/15 02:37:17;;;;;;;2.33;1.63;;;3.50;99.90;;;;;;4976744;28;20184;-70
2021/03/15 02:39:50;;;;;;;1.50;1.27;;;3.50;99.90;;;;;;4977462;28;20692;-70
2021/03/15 02:42:19;;;;;;;5.00;1.40;;;3.50;99.90;;;;;;4973420;28;20192;-70
2021/03/15 02:44:49;;;;;;;1.10;1.00;;;3.50;99.90;;;;;;4978279;28;20208;-67
2021/03/15 02:47:22;;;;;;;2.27;1.50;;;3.50;99.90;;;;;;4981581;28;20188;-68
2021/03/15 02:49:52;;;;;;;1.63;1.50;;;3.50;99.90;;;;;;4977991;28;20193;-69
2021/03/15 02:52:19;;;;;;;2.67;1.60;;;3.50;99.90;;;;;;4977479;28;20186;-66
2021/03/15 02:54:46;;;;;;;1.83;1.23;;;3.50;99.90;;;;;;4979078;28;20220;-67
2021/03/15 02:57:16;;;;;;;1.83;1.57;;;3.50;99.90;;;;;;4980525;28;20195;-69
2021/03/15 02:59:43;;;;;;;2.37;1.70;;;3.50;99.90;;;;;;4979213;28;20190;-69
2021/03/15 03:02:10;;;;;;;1.37;1.27;;;3.50;99.90;;;;;;4979651;28;20189;-68
2021/03/15 03:04:37;;;;;;;2.67;1.60;;;3.50;99.90;;;;;;4977528;28;20201;-70
2021/03/15 03:07:05;;;;;;;3.53;1.77;;;3.50;99.90;;;;;;4980024;28;20534;-68
2021/03/15 03:09:33;;;;;;;1.57;1.27;;;3.60;99.90;;;;;;4980931;28;20760;-67
2021/03/15 03:12:00;;;;;;;1.63;1.53;;;3.50;99.90;;;;;;4979310;28;20685;-67
2021/03/15 03:14:27;;;;;;;1.70;1.47;;;3.60;99.90;;;;;;4979696;28;20673;-68
2021/03/15 03:16:56;;;;;;;1.50;1.40;;;3.60;99.90;;;;;;4979994;28;20188;-69
2021/03/15 03:19:23;;;;;;;1.00;0.90;;;3.60;99.90;;;;;;4977975;28;20646;-68
2021/03/15 03:21:50;;;;;;;1.10;1.00;;;3.60;99.90;;;;;;4993644;28;20184;-69
2021/03/15 03:24:18;;;;;;;1.10;1.07;;;3.60;99.90;;;;;;4978014;28;20216;-71
2021/03/15 03:26:45;;;;;;;0.80;0.80;;;3.50;99.90;;;;;;4978695;28;20204;-68
2021/03/15 03:29:13;;;;;;;1.30;0.93;;;3.60;99.90;;;;;;4979527;28;20591;-67
2021/03/15 03:31:45;;;;;;;0.80;0.60;;;3.50;99.90;;;;;;4978081;28;20227;-66
2021/03/15 03:34:11;;;;;;;0.57;0.57;;;3.40;99.90;;;;;;4979611;28;20197;-70
2021/03/15 03:36:37;;;;;;;0.57;0.57;;;3.30;99.90;;;;;;4980293;28;20188;-70
2021/03/15 03:39:07;;;;;;;0.30;0.30;;;3.30;99.90;;;;;;4978687;28;20243;-70
2021/03/15 03:41:33;;;;;;;0.63;0.63;;;3.20;99.90;;;;;;4993617;28;20202;-69
2021/03/15 03:43:59;;;;;;;1.80;0.63;;;3.30;99.90;;;;;;4993131;28;20208;-68
2021/03/15 03:46:31;;;;;;;0.30;0.30;;;3.30;99.90;;;;;;5074505;28;20603;-67
2021/03/15 03:48:57;;;;;;;0.30;0.30;;;3.30;99.90;;;;;;5064349;28;20225;-69
2021/03/15 03:51:27;;;;;;;0.20;0.20;;;3.30;99.90;;;;;;5064048;28;20181;-68
2021/03/15 03:54:16;;;;;;;0.43;0.43;;;3.30;99.90;;;;;;5091710;28;20214;-66
2021/03/15 03:57:01;;;;;;;0.20;0.20;;;3.30;99.90;;;;;;5055287;28;20630;-68
2021/03/15 03:59:30;;;;;;;0.30;0.30;;;3.20;99.90;;;;;;5053031;28;20232;-67
2021/03/15 04:01:58;;;;;;;0.40;0.40;;;3.10;99.90;;;;;;5053243;28;20195;-68
2021/03/15 04:04:26;;;;;;;0.40;0.40;;;3.20;99.90;;;;;;5054219;28;20333;-69
2021/03/15 04:06:52;;;;;;;0.40;0.30;;;3.10;99.90;;;;;;5054208;28;20235;-69
2021/03/15 04:09:26;;;;;;;0.30;0.30;;;3.10;99.90;;;;;;5052422;28;20196;-66
2021/03/15 04:11:55;;;;;;;0.20;0.20;;;3.10;99.90;;;;;;5054273;28;20181;-70
2021/03/15 04:14:34;;;;;;;0.33;0.30;;;3.10;99.90;;;;;;5052397;28;20222;-69
2021/03/15 04:17:01;;;;;;;0.30;0.30;;;3.20;99.90;;;;;;5051380;28;20186;-69
2021/03/15 04:19:32;;;;;;;0.30;0.30;;;3.20;99.90;;;;;;5054374;28;20178;-64
2021/03/15 04:22:02;;;;;;;0.27;0.27;;;3.10;99.90;;;;;;5050339;28;20193;-65
2021/03/15 04:24:30;;;;;;;0.20;0.20;;;3.10;99.90;;;;;;5051437;28;20214;-67
2021/03/15 04:26:57;;;;;;;0.20;0.20;;;3.20;99.90;;;;;;5055095;28;20579;-68
2021/03/15 04:29:24;;;;;;;0.83;0.60;;;3.10;99.90;;;;;;5050922;28;20263;-68
2021/03/15 04:31:50;;;;;;;0.30;0.30;;;3.10;99.90;;;;;;5051254;28;20209;-66
2021/03/15 04:34:17;;;;;;;0.43;0.43;;;3.10;99.90;;;;;;5051911;28;20210;-65
2021/03/15 04:36:45;;;;;;;0.50;0.50;;;3.10;99.90;;;;;;5052821;28;20182;-68
2021/03/15 04:39:12;;;;;;;0.67;0.50;;;3.10;99.90;;;;;;5053301;28;20653;-68
2021/03/15 04:41:38;;;;;;;0.40;0.40;;;3.00;99.90;;;;;;5053860;28;20178;-65
2021/03/15 04:44:05;;;;;;;0.87;0.80;;;3.10;99.90;;;;;;5052679;28;20237;-69
2021/03/15 04:46:31;;;;;;;0.70;0.50;;;3.10;99.90;;;;;;5053539;28;20657;-68
2021/03/15 04:48:57;;;;;;;0.70;0.70;;;3.10;99.90;;;;;;5052893;28;20444;-67
2021/03/15 04:51:24;;;;;;;0.63;0.63;;;3.00;99.90;;;;;;5048822;28;20242;-69
2021/03/15 04:53:51;;;;;;;0.83;0.67;;;3.10;99.90;;;;;;5051709;28;20204;-70
2021/03/15 04:56:18;;;;;;;1.80;0.80;;;3.10;99.90;;;;;;5045942;28;20481;-67
2021/03/15 04:58:48;;;;;;;0.83;0.83;;;3.10;99.90;;;;;;5035715;28;20202;-67
2021/03/15 05:01:15;;;;;;;1.10;1.00;;;3.10;99.90;;;;;;5034235;28;20691;-68
2021/03/15 05:03:43;;;;;;;0.80;0.63;;;3.10;99.90;;;;;;5038269;28;20221;-69
2021/03/15 05:06:09;;;;;;;1.50;1.40;;;3.10;99.90;;;;;;5034405;28;20213;-67
2021/03/15 05:08:39;;;;;;;1.77;1.03;;;3.10;99.90;;;;;;5036842;28;20716;-68
2021/03/15 05:11:05;;;;;;;1.77;1.43;;;3.10;99.90;;;;;;5036108;28;20186;-68
2021/03/15 05:13:33;;;;;;;1.43;1.20;;;3.00;99.90;;;;;;5036786;28;20209;-68
2021/03/15 05:16:00;;;;;;;1.67;1.40;;;3.00;99.90;;;;;;5032802;28;20289;-69
2021/03/15 05:18:27;;;;;;;1.00;0.90;;;3.00;99.90;;;;;;5036273;28;20245;-67
2021/03/15 05:20:53;;;;;;;2.37;1.30;;;3.00;99.90;;;;;;5035793;28;20205;-69
2021/03/15 05:23:22;;;;;;;1.03;0.93;;;2.90;99.90;;;;;;5038126;28;20219;-66
2021/03/15 05:25:51;;;;;;;1.50;0.80;;;3.00;99.90;;;;;;5037957;28;20318;-66
2021/03/15 05:28:18;;;;;;;1.37;1.27;;;3.00;99.90;;;;;;5039491;28;20474;-69
2021/03/15 05:30:46;;;;;;;2.10;1.40;;;2.90;99.90;;;;;;5035142;28;20218;-68
2021/03/15 05:33:14;;;;;;;1.07;0.83;;;2.90;99.90;;;;;;5036142;28;20695;-68
2021/03/15 05:35:42;;;;;;;0.90;0.90;;;2.90;99.90;;;;;;5035869;28;20225;-67
2021/03/15 05:38:09;;;;;;;1.10;1.00;;;2.90;99.90;;;;;;5036133;28;20685;-69
2021/03/15 05:40:37;;;;;;;1.57;1.17;;;3.00;99.90;;;;;;5029841;28;20187;-70
2021/03/15 05:43:24;;;;;;;2.03;1.43;;;3.00;99.90;;;;;;5026366;28;20221;-67
2021/03/15 05:46:08;;;;;;;1.50;1.10;;;2.90;99.90;;;;;;5031103;28;20620;-68
2021/03/15 05:48:53;;;;;;;0.97;0.87;;;3.00;99.90;;;;;;5033809;28;20478;-70
2021/03/15 05:51:40;;;;;;;1.37;0.90;;;3.00;99.90;;;;;;5029876;28;20174;-68
2021/03/15 05:54:28;;;;;;;1.20;1.10;;;3.00;99.90;;;;;;5033034;28;20800;-65
2021/03/15 05:57:24;;;;;;;1.27;1.03;;;3.00;99.90;;;;;;5049695;28;20650;-67
2021/03/15 06:00:10;;;;;;;0.83;0.80;;;3.00;99.90;;;;;;5025291;28;20187;-69
2021/03/15 06:03:10;;;;;;;1.20;0.97;;;3.00;99.90;;;;;;5035169;28;20202;-66
2021/03/15 06:05:36;;;;;;;2.23;1.63;;;3.10;99.90;;;;;;5031604;28;20649;-67
2021/03/15 06:08:11;;;;;;;0.83;0.60;;;3.10;99.90;;;;;;5036594;28;20183;-67
2021/03/15 06:10:57;;;;;;;1.00;0.90;;;3.00;99.90;;;;;;5028100;28;20553;-68
2021/03/15 06:13:23;;;;;;;0.77;0.70;;;3.10;99.90;;;;;;5030775;28;20211;-67
2021/03/15 06:15:50;;;;;;;1.03;0.80;;;3.10;99.90;;;;;;5027980;28;20202;-69
2021/03/15 06:18:16;;;;;;;1.00;0.90;;;3.20;99.90;;;;;;5035064;28;20654;-70
2021/03/15 06:20:45;;;;;;;1.63;1.07;;;3.20;99.90;;;;;;5031951;28;20218;-70
2021/03/15 06:23:11;;;;;;;1.20;0.97;;;3.20;99.90;;;;;;5029113;28;20249;-67
2021/03/15 06:25:37;;;;;;;1.00;0.90;;;3.20;99.90;;;;;;5033292;28;20218;-68
2021/03/15 06:28:04;;;;;;;1.07;0.83;;;3.20;99.90;;;;;;5033009;28;20193;-66
2021/03/15 06:30:30;;;;;;;1.93;1.73;;;3.20;99.90;;;;;;5031165;28;20752;-70
2021/03/15 06:32:59;;;;;;;2.87;2.10;;;3.30;99.90;;;;;;5035533;28;20182;-67
2021/03/15 06:35:30;;;;;;;2.70;1.90;;;3.30;99.90;;;;;;5035619;28;20616;-70
2021/03/15 06:37:56;;;;;;;1.97;1.77;;;3.30;99.90;;;;;;5036087;28;20270;-69
2021/03/15 06:40:23;;;;;;;3.17;2.57;;;3.30;99.90;;;;;;5035926;28;20179;-69
2021/03/15 06:42:53;;;;;;;2.10;1.80;;;3.30;99.90;;;;;;5033707;28;20193;-68
2021/03/15 06:45:19;;;;;;;3.23;1.40;;;3.30;99.90;;;;;;5035862;28;20272;-68
2021/03/15 06:47:46;;;;;;;2.87;2.20;;;3.40;99.90;;;;;;5035272;28;20574;-67
2021/03/15 06:50:13;;;;;;;2.13;1.53;;;3.40;99.90;;;;;;5034266;28;20190;-67
2021/03/15 06:53:01;;;;;;;1.43;1.33;;;3.40;99.90;;;;;;5035795;28;20739;-68
2021/03/15 06:55:36;;;;;;;2.40;2.07;;;3.40;99.90;;;;;;5034913;28;20761;-69
2021/03/15 06:58:25;;;;;;;2.87;1.87;;;3.40;99.90;;;;;;5034032;28;20194;-69
2021/03/15 07:01:09;;;;;;;2.33;1.93;;;3.30;99.90;;;;;;5034340;28;20182;-69
2021/03/15 07:03:36;;;;;;;3.40;1.97;;;3.40;99.90;;;;;;5035023;28;20227;-69
2021/03/15 07:06:02;;;;;;;1.47;1.30;;;3.40;99.90;;;;;;5034969;28;20241;-68
2021/03/15 07:08:28;;;;;;;3.50;1.80;;;3.40;99.90;;;;;;5037439;28;20641;-69
2021/03/15 07:10:57;;;;;;;1.50;1.40;;;3.40;99.90;;;;;;5034868;28;20175;-68
2021/03/15 07:13:25;;;;;;;2.00;1.73;;;3.40;99.90;;;;;;5034705;28;20205;-68
2021/03/15 07:15:54;;;;;;;3.77;2.20;;;3.40;99.90;;;;;;5033838;28;20611;-69
2021/03/15 07:18:21;;;;;;;1.60;1.50;;;3.60;99.90;;;;;;5035712;28;20678;-70
2021/03/15 07:21:07;;;;;;;1.83;1.47;;;3.70;99.90;;;;;;5033814;28;20186;-67
2021/03/15 07:23:39;;;;;;;2.00;1.70;;;3.70;99.90;;;;;;5035891;28;20218;-69
2021/03/15 07:26:14;;;;;;;2.23;1.67;;;3.80;99.90;;;;;;5033822;28;20206;-69
2021/03/15 07:28:44;;;;;;;1.63;1.47;;;3.80;99.90;;;;;;5031735;28;20226;-67
2021/03/15 07:31:19;;;;;;;2.90;1.97;;;3.90;99.90;;;;;;5032488;28;20186;-68
2021/03/15 07:33:57;;;;;;;1.57;1.40;;;3.70;99.90;;;;;;5034005;28;20569;-68
2021/03/15 07:36:33;;;;;;;1.63;1.47;;;3.80;99.90;;;;;;5034800;28;20190;-66
2021/03/15 07:39:06;;;;;;;2.47;1.30;;;3.90;99.90;;;;;;5030562;28;20182;-67
2021/03/15 07:41:36;;;;;;;1.87;1.30;;;3.80;99.90;;;;;;5034119;28;20568;-65
2021/03/15 07:44:27;;;;;;;2.47;1.97;;;3.80;99.90;;;;;;5034144;28;20213;-66
2021/03/15 07:46:56;;;;;;;1.97;1.60;;;3.90;99.90;;;;;;5028669;28;20182;-69
2021/03/15 07:49:25;;;;;;;2.07;1.27;;;3.90;99.90;;;;;;5060421;28;20278;-68
2021/03/15 07:51:53;;;;;;;2.90;2.03;;;3.80;99.90;;;;;;5031864;28;20677;-69
2021/03/15 07:54:27;;;;;;;2.23;1.63;;;3.90;99.90;;;;;;5026132;28;20256;-68
2021/03/15 07:57:11;;;;;;;2.50;2.07;;;3.90;99.90;;;;;;5031635;28;20204;-68
2021/03/15 07:59:38;;;;;;;2.03;1.60;;;4.00;99.90;;;;;;5028839;28;20178;-65
2021/03/15 08:02:04;;;;;;;2.30;1.87;;;4.00;99.90;;;;;;5028584;28;20182;-64
2021/03/15 08:04:30;;;;;;;2.43;1.93;;;4.00;99.90;;;;;;5031527;28;20353;-67
2021/03/15 08:06:57;;;;;;;2.40;1.83;;;4.00;99.90;;;;;;5032148;28;20195;-67
2021/03/15 08:09:23;;;;;;;2.10;1.77;;;4.00;99.90;;;;;;5036380;28;20175;-68
2021/03/15 08:11:52;;;;;;;4.50;3.37;;;4.10;99.90;;;;;;5034588;28;20676;-66
2021/03/15 08:14:20;;;;;;;2.30;1.53;;;4.10;99.90;;;;;;5067095;28;20218;-65
2021/03/15 08:16:47;;;;;;;1.70;1.20;;;4.30;99.90;;;;;;5034489;28;20684;-68
2021/03/15 08:19:17;;;;;;;2.17;1.80;;;4.30;99.90;;;;;;5035857;28;20183;-65
2021/03/15 08:21:45;;;;;;;2.97;2.13;;;4.40;99.90;;;;;;5034491;28;20178;-68
2021/03/15 08:24:13;;;;;;;3.27;1.77;;;4.50;99.90;;;;;;5035512;28;20685;-65
2021/03/15 08:26:40;;;;;;;2.63;2.00;;;4.50;99.90;;;;;;5035236;28;20209;-68
2021/03/15 08:29:07;;;;;;;2.47;1.97;;;4.60;99.90;;;;;;5035467;28;20189;-66
2021/03/15 08:31:38;;;;;;;3.63;1.87;;;4.80;99.90;;;;;;5036442;28;20187;-67
2021/03/15 08:34:05;;;;;;;1.90;1.50;;;5.00;99.90;;;;;;5039061;28;20268;-66
2021/03/15 08:36:46;;;;;;;2.10;1.67;;;5.10;99.90;;;;;;5040216;28;20261;-68
2021/03/15 08:39:27;;;;;;;1.90;1.50;;;5.20;99.90;;;;;;5037951;28;20194;-69
2021/03/15 08:42:13;;;;;;;1.73;1.53;;;5.30;99.90;;;;;;5037486;28;20211;-68
2021/03/15 08:44:40;;;;;;;1.40;1.10;;;5.30;99.90;;;;;;5037218;28;20221;-67
2021/03/15 08:47:06;;;;;;;1.70;1.37;;;5.30;99.90;;;;;;5038986;28;20186;-69
2021/03/15 08:49:35;;;;;;;1.67;1.33;;;5.30;99.90;;;;;;5034337;28;20190;-68
2021/03/15 08:52:01;;;;;;;1.50;0.87;;;5.20;99.90;;;;;;5033187;28;20775;-70
2021/03/15 08:54:37;;;;;;;2.07;1.30;;;5.20;99.90;;;;;;5032672;28;20937;-67
2021/03/15 08:57:03;;;;;;;2.50;1.67;;;5.30;99.90;;;;;;5029307;28;20715;-65
2021/03/15 08:59:31;;;;;;;1.70;1.53;;;5.40;99.90;;;;;;5037564;28;20218;-66
2021/03/15 09:02:00;;;;;;;2.27;1.80;;;5.40;99.90;;;;;;5035115;28;20187;-65
2021/03/15 09:04:31;;;;;;;1.27;1.00;;;5.50;99.90;;;;;;5035224;28;20222;-66
2021/03/15 09:06:59;;;;;;;2.43;1.37;;;5.60;99.90;;;;;;5037232;28;20278;-68
2021/03/15 09:09:25;;;;;;;1.07;0.97;;;5.60;99.90;;;;;;5036231;28;20667;-67
2021/03/15 09:11:53;;;;;;;1.53;1.27;;;5.60;99.90;;;;;;5035468;28;20182;-68
2021/03/15 09:14:26;;;;;;;2.20;1.10;;;5.80;99.90;;;;;;5037024;28;20202;-68
2021/03/15 09:16:56;;;;;;;1.40;0.90;;;5.90;99.90;;;;;;5036860;28;20183;-67
2021/03/15 09:19:33;;;;;;;1.63;1.37;;;6.00;99.90;;;;;;5037647;28;20306;-68
2021/03/15 09:22:01;;;;;;;2.00;1.30;;;6.10;99.90;;;;;;5037555;28;20653;-69
2021/03/15 09:24:46;;;;;;;0.80;0.80;;;6.30;99.90;;;;;;5037303;28;20526;-68
2021/03/15 09:27:23;;;;;;;2.87;1.27;;;6.30;99.90;;;;;;5036962;28;20174;-67
2021/03/15 09:30:09;;;;;;;2.77;1.27;;;6.30;99.90;;;;;;5035495;28;20186;-65
2021/03/15 09:32:44;;;;;;;1.73;1.33;;;6.50;99.90;;;;;;5034676;28;20212;-66
2021/03/15 09:35:17;;;;;;;3.17;1.10;;;6.60;99.90;;;;;;5032142;28;20201;-65
2021/03/15 09:37:55;;;;;;;1.90;0.90;;;6.80;99.90;;;;;;5036746;28;20633;-65
2021/03/15 09:40:31;;;;;;;1.70;1.20;;;6.70;99.90;;;;;;5036575;28;20187;-68
2021/03/15 09:42:57;;;;;;;1.83;0.93;;;6.60;99.90;;;;;;5032894;28;20817;-66
2021/03/15 09:45:32;;;;;;;0.50;0.50;;;6.50;99.90;;;;;;5035072;28;20225;-67
2021/03/15 09:47:58;;;;;;;1.07;0.80;;;6.50;99.90;;;;;;5032014;28;20232;-65
2021/03/15 09:50:30;;;;;;;1.27;1.17;;;6.50;99.90;;;;;;5032909;28;20187;-69
2021/03/15 09:53:07;;;;;;;1.23;1.10;;;6.40;99.90;;;;;;5023912;28;20183;-67
2021/03/15 09:55:33;;;;;;;5.10;1.97;;;6.50;99.90;;;;;;5028697;28;20666;-68
2021/03/15 09:58:07;;;;;;;1.10;0.80;;;6.50;99.90;;;;;;5036274;28;20186;-65
2021/03/15 10:00:33;;;;;;;2.70;1.13;;;6.60;99.90;;;;;;5031753;28;20243;-69
2021/03/15 10:02:59;;;;;;;0.80;0.80;;;6.50;99.90;;;;;;5030873;28;20495;-68
2021/03/15 10:05:25;;;;;;;1.20;1.07;;;6.50;99.90;;;;;;5031502;28;20297;-68
2021/03/15 10:07:50;;;;;;;1.07;0.97;;;6.50;99.90;;;;;;5032248;28;20193;-69
2021/03/15 10:10:22;;;;;;;3.03;1.40;;;6.50;99.90;;;;;;5029724;28;20189;-68
2021/03/15 10:12:59;;;;;;;2.73;0.90;;;6.40;99.90;;;;;;5035471;28;20182;-67
2021/03/15 10:15:25;;;;;;;2.60;1.60;;;6.20;99.90;;;;;;5031085;28;20183;-67
2021/03/15 10:17:51;;;;;;;0.53;0.53;;;6.00;99.90;;;;;;5034297;28;20550;-66
2021/03/15 10:20:28;;;;;;;1.77;1.10;;;6.00;99.90;;;;;;5026669;28;20183;-67
2021/03/15 10:22:55;;;;;;;1.67;0.83;;;6.00;99.90;;;;;;5040461;28;20673;-66
2021/03/15 10:25:21;;;;;;;0.70;0.70;;;6.20;99.90;;;;;;5024060;28;20213;-69
2021/03/15 10:27:57;;;;;;;1.83;1.10;;;6.50;99.90;;;;;;5029984;28;20187;-67
2021/03/15 10:30:31;;;;;;;1.80;0.97;;;6.70;99.90;;;;;;5033099;28;20589;-69
2021/03/15 10:32:58;;;;;;;1.07;0.83;;;6.90;99.90;;;;;;5029193;28;20237;-70
2021/03/15 10:35:30;;;;;;;1.70;0.77;;;7.10;99.90;;;;;;5028677;28;20218;-67
2021/03/15 10:38:02;;;;;;;1.90;0.97;;;7.20;99.90;;;;;;5029407;28;20562;-67
2021/03/15 10:40:29;;;;;;;4.77;2.17;;;7.40;99.90;;;;;;5024440;28;20183;-68
2021/03/15 10:42:55;;;;;;;1.80;1.23;;;7.50;99.90;;;;;;5032871;28;20182;-69
2021/03/15 10:45:24;;;;;;;1.07;0.97;;;7.30;99.90;;;;;;5029514;28;20548;-67
2021/03/15 10:47:50;;;;;;;3.97;1.80;;;7.10;99.90;;;;;;5034549;28;20460;-70
2021/03/15 10:50:28;;;;;;;2.40;1.60;;;6.90;99.90;;;;;;5025745;28;20308;-66
2021/03/15 10:52:55;;;;;;;1.73;1.50;;;6.80;99.90;;;;;;5031319;28;20205;-69
2021/03/15 10:55:23;;;;;;;5.93;1.80;;;6.80;99.90;;;;;;5029021;28;20182;-66
2021/03/15 10:58:01;;;;;;;5.17;2.00;;;6.60;99.90;;;;;;5038606;28;20281;-66
2021/03/15 11:00:29;;;;;;;2.63;1.83;;;6.40;99.90;;;;;;5032259;28;20240;-67
2021/03/15 11:02:55;;;;;;;2.17;1.20;;;6.50;99.90;;;;;;5033448;28;20225;-66
2021/03/15 11:05:21;;;;;;;2.13;1.50;;;6.90;99.90;;;;;;5034759;28;20576;-68
2021/03/15 11:07:47;;;;;;;2.73;1.53;;;7.30;99.90;;;;;;5036606;28;20209;-66
2021/03/15 11:10:19;;;;;;;3.27;1.67;;;7.50;99.90;;;;;;5037040;28;20225;-69
2021/03/15 11:12:56;;;;;;;2.93;1.83;;;7.60;99.90;;;;;;5036105;28;20189;-67
2021/03/15 11:15:37;;;;;;;1.73;1.27;;;7.40;99.90;;;;;;5035508;28;20273;-67
2021/03/15 11:18:13;;;;;;;2.30;1.30;;;7.30;99.90;;;;;;5036428;28;20179;-67
2021/03/15 11:20:52;;;;;;;2.47;1.27;;;7.00;99.90;;;;;;5036708;28;20300;-66
2021/03/15 11:23:35;;;;;;;4.40;2.37;;;6.80;99.90;;;;;;5035330;28;20197;-68
2021/03/15 11:26:10;;;;;;;1.30;1.13;;;6.70;99.90;;;;;;5068951;28;20225;-69
2021/03/15 11:28:45;;;;;;;4.73;1.60;;;6.70;99.90;;;;;;5038276;28;20679;-70
2021/03/15 11:31:16;;;;;;;6.83;3.20;;;6.70;99.90;;;;;;5037838;28;20670;-67
2021/03/15 11:34:00;;;;;;;1.53;0.90;;;6.80;99.90;;;;;;5037208;28;20346;-68
2021/03/15 11:36:28;;;;;;;1.80;0.90;;;7.00;99.90;;;;;;5037051;28;20186;-69
2021/03/15 11:39:06;;;;;;;3.10;2.13;;;7.30;99.90;;;;;;5033699;28;20205;-69
2021/03/15 11:41:37;;;;;;;3.27;2.00;;;7.50;99.90;;;;;;5035481;28;20276;-68
2021/03/15 11:44:03;;;;;;;1.00;0.90;;;7.80;99.90;;;;;;5032313;28;20567;-67
2021/03/15 11:46:29;;;;;;;11.17;4.13;;;8.10;99.90;;;;;;5034045;28;20242;-67
2021/03/15 11:48:54;;;;;;;21.03;5.00;;;8.30;99.90;;;;;;5031509;28;20270;-67
2021/03/15 11:51:20;;;;;;;1.33;1.00;;;8.30;99.90;;;;;;5035519;28;20178;-66
2021/03/15 11:53:46;;;;;;;1.03;0.90;;;8.20;99.90;;;;;;5034400;28;20229;-67
2021/03/15 11:56:13;;;;;;;1.43;0.93;;;8.20;99.90;;;;;;5034435;28;20221;-68
2021/03/15 11:58:39;;;;;;;0.90;0.67;;;8.40;99.90;;;;;;5036324;28;20183;-71
2021/03/15 12:01:06;;;;;;;1.40;0.60;;;8.40;99.90;;;;;;5032670;28;20194;-66
2021/03/15 12:03:32;;;;;;;1.33;1.03;;;8.20;99.90;;;;;;5030853;28;20211;-67
2021/03/15 12:05:58;;;;;;;1.07;0.57;;;8.10;99.90;;;;;;5026000;28;20209;-68
2021/03/15 12:08:24;;;;;;;3.73;0.80;;;8.30;99.90;;;;;;5035810;28;20264;-68
2021/03/15 12:10:50;;;;;;;2.07;0.77;;;8.40;99.90;;;;;;5032866;28;20183;-66
2021/03/15 12:13:16;;;;;;;0.80;0.60;;;8.40;99.90;;;;;;5029344;28;20917;-70
2021/03/15 12:15:42;;;;;;;2.17;1.50;;;8.50;99.90;;;;;;5034213;28;20193;-68
2021/03/15 12:18:08;;;;;;;1.60;0.60;;;8.50;99.90;;;;;;5040133;28;20187;-68
2021/03/15 12:20:35;;;;;;;1.00;0.70;;;8.40;99.90;;;;;;5039024;28;20197;-67
2021/03/15 12:23:02;;;;;;;0.70;0.63;;;8.00;99.90;;;;;;5038669;28;20749;-68
2021/03/15 12:25:27;;;;;;;0.90;0.90;;;8.10;99.90;;;;;;5040460;28;20627;-70
2021/03/15 12:27:53;;;;;;;1.10;0.60;;;8.10;99.90;;;;;;5040222;28;20194;-70
2021/03/15 12:30:20;;;;;;;1.27;0.60;;;8.10;99.90;;;;;;5038212;28;20560;-68
2021/03/15 12:32:47;;;;;;;1.50;0.80;;;8.10;99.90;;;;;;5037167;28;20579;-69
2021/03/15 12:35:13;;;;;;;0.60;0.60;;;8.10;99.90;;;;;;5037625;28;20205;-68
2021/03/15 12:37:39;;;;;;;0.80;0.67;;;8.00;99.90;;;;;;5040395;28;20197;-67
2021/03/15 12:40:06;;;;;;;2.67;0.70;;;7.90;99.90;;;;;;5038665;28;20198;-66
2021/03/15 12:42:31;;;;;;;2.23;0.80;;;8.00;99.90;;;;;;5038320;28;20189;-70
2021/03/15 12:44:57;;;;;;;0.83;0.80;;;8.20;99.90;;;;;;5039231;28;20222;-68
2021/03/15 12:47:23;;;;;;;0.60;0.50;;;8.50;99.90;;;;;;5038141;28;20241;-67
2021/03/15 12:49:49;;;;;;;2.13;0.67;;;8.90;99.90;;;;;;5038380;28;20187;-70
2021/03/15 12:52:16;;;;;;;0.47;0.30;;;9.40;99.90;;;;;;5038144;28;20273;-68
2021/03/15 12:54:42;;;;;;;0.67;0.67;;;9.20;99.90;;;;;;5037737;28;20207;-67
2021/03/15 12:57:07;;;;;;;2.00;0.60;;;9.00;99.90;;;;;;5033654;28;20241;-68
2021/03/15 12:59:33;;;;;;;1.60;0.60;;;8.70;99.90;;;;;;5027044;28;20182;-68
2021/03/15 13:01:59;;;;;;;0.50;0.40;;;8.40;99.90;;;;;;5029508;28;20237;-68
2021/03/15 13:04:25;;;;;;;1.40;1.17;;;8.50;99.90;;;;;;5029806;28;20847;-69
2021/03/15 13:06:51;;;;;;;0.50;0.50;;;8.40;99.90;;;;;;5031107;28;20199;-70
2021/03/15 13:09:17;;;;;;;0.57;0.57;;;8.30;99.90;;;;;;5024382;28;20191;-66
2021/03/15 13:11:43;;;;;;;2.70;0.60;;;8.30;99.90;;;;;;5034205;28;20244;-68
2021/03/15 13:14:09;;;;;;;1.37;0.60;;;8.30;99.90;;;;;;5026272;28;20253;-68